sensor_id;sensor_type;location;lat;lon;timestamp;P1;durP1;ratioP1;P2;durP2;ratioP2
51949;SDS011;37974;53.218;6.640;2023-04-01T00:01:20;10.15;;;6.55;;
51949;SDS011;37974;53.218;6.640;2023-04-01T00:03:46;11.18;;;6.60;;
51949;SDS011;37974;53.218;6.640;2023-04-01T00:06:12;12.90;;;6.90;;
51949;SDS011;37974;53.218;6.640;2023-04-01T00:08:39;8.55;;;6.78;;
51949;SDS011;37974;53.218;6.640;2023-04-01T00:11:05;9.32;;;6.75;;
51949;SDS011;37974;53.218;6.640;2023-04-01T00:13:31;10.88;;;7.43;;
51949;SDS011;37974;53.218;6.640;2023-04-01T00:15:57;8.60;;;6.63;;
51949;SDS011;37974;53.218;6.640;2023-04-01T00:18:23;10.68;;;6.95;;
51949;SDS011;37974;53.218;6.640;2023-04-01T00:20:50;10.25;;;7.10;;
51949;SDS011;37974;53.218;6.640;2023-04-01T00:23:17;12.82;;;6.88;;
51949;SDS011;37974;53.218;6.640;2023-04-01T00:25:43;11.02;;;6.88;;
51949;SDS011;37974;53.218;6.640;2023-04-01T00:28:12;11.07;;;6.80;;
51949;SDS011;37974;53.218;6.640;2023-04-01T00:30:40;10.70;;;7.10;;
51949;SDS011;37974;53.218;6.640;2023-04-01T00:33:14;9.52;;;6.82;;
51949;SDS011;37974;53.218;6.640;2023-04-01T00:35:41;14.55;;;7.95;;
51949;SDS011;37974;53.218;6.640;2023-04-01T00:38:07;11.15;;;7.72;;
51949;SDS011;37974;53.218;6.640;2023-04-01T00:40:34;13.30;;;7.28;;
51949;SDS011;37974;53.218;6.640;2023-04-01T00:43:02;14.32;;;8.00;;
51949;SDS011;37974;53.218;6.640;2023-04-01T00:48:00;10.88;;;7.22;;
51949;SDS011;37974;53.218;6.640;2023-04-01T00:50:30;13.73;;;7.78;;
51949;SDS011;37974;53.218;6.640;2023-04-01T00:52:59;11.55;;;7.70;;
51949;SDS011;37974;53.218;6.640;2023-04-01T00:55:26;13.30;;;8.10;;
51949;SDS011;37974;53.218;6.640;2023-04-01T00:57:57;13.48;;;8.15;;
51949;SDS011;37974;53.218;6.640;2023-04-01T01:00:26;10.07;;;7.47;;
51949;SDS011;37974;53.218;6.640;2023-04-01T01:02:52;9.68;;;7.70;;
51949;SDS011;37974;53.218;6.640;2023-04-01T01:05:22;12.05;;;7.75;;
51949;SDS011;37974;53.218;6.640;2023-04-01T01:08:00;11.73;;;8.20;;
51949;SDS011;37974;53.218;6.640;2023-04-01T01:10:43;11.98;;;8.55;;
51949;SDS011;37974;53.218;6.640;2023-04-01T01:13:17;11.23;;;8.50;;
51949;SDS011;37974;53.218;6.640;2023-04-01T01:18:24;11.38;;;8.40;;
51949;SDS011;37974;53.218;6.640;2023-04-01T01:23:42;11.88;;;8.88;;
51949;SDS011;37974;53.218;6.640;2023-04-01T01:26:35;15.43;;;9.35;;
51949;SDS011;37974;53.218;6.640;2023-04-01T01:37:31;11.45;;;8.90;;
51949;SDS011;37974;53.218;6.640;2023-04-01T01:39:59;13.07;;;10.00;;
51949;SDS011;37974;53.218;6.640;2023-04-01T01:42:29;11.68;;;8.90;;
51949;SDS011;37974;53.218;6.640;2023-04-01T01:44:58;13.73;;;9.38;;
51949;SDS011;37974;53.218;6.640;2023-04-01T01:47:26;14.88;;;10.23;;
51949;SDS011;37974;53.218;6.640;2023-04-01T01:49:53;15.98;;;10.13;;
51949;SDS011;37974;53.218;6.640;2023-04-01T01:52:21;10.25;;;8.55;;
51949;SDS011;37974;53.218;6.640;2023-04-01T01:54:49;12.18;;;9.45;;
51949;SDS011;37974;53.218;6.640;2023-04-01T01:57:16;14.10;;;9.02;;
51949;SDS011;37974;53.218;6.640;2023-04-01T01:59:44;13.40;;;9.55;;
51949;SDS011;37974;53.218;6.640;2023-04-01T02:02:13;13.32;;;8.93;;
51949;SDS011;37974;53.218;6.640;2023-04-01T02:04:41;15.80;;;9.63;;
51949;SDS011;37974;53.218;6.640;2023-04-01T02:07:11;17.45;;;9.38;;
51949;SDS011;37974;53.218;6.640;2023-04-01T02:09:41;14.48;;;9.60;;
51949;SDS011;37974;53.218;6.640;2023-04-01T02:12:09;14.25;;;9.23;;
51949;SDS011;37974;53.218;6.640;2023-04-01T02:17:19;12.18;;;8.68;;
51949;SDS011;37974;53.218;6.640;2023-04-01T02:19:51;11.63;;;9.10;;
51949;SDS011;37974;53.218;6.640;2023-04-01T02:22:20;15.85;;;9.35;;
51949;SDS011;37974;53.218;6.640;2023-04-01T02:24:49;13.48;;;8.35;;
51949;SDS011;37974;53.218;6.640;2023-04-01T02:27:17;11.77;;;8.65;;
51949;SDS011;37974;53.218;6.640;2023-04-01T02:29:43;12.15;;;8.88;;
51949;SDS011;37974;53.218;6.640;2023-04-01T02:32:10;15.48;;;9.43;;
51949;SDS011;37974;53.218;6.640;2023-04-01T02:34:37;12.23;;;9.50;;
51949;SDS011;37974;53.218;6.640;2023-04-01T02:37:03;13.45;;;9.45;;
51949;SDS011;37974;53.218;6.640;2023-04-01T02:39:29;13.07;;;8.85;;
51949;SDS011;37974;53.218;6.640;2023-04-01T02:41:55;14.65;;;9.50;;
51949;SDS011;37974;53.218;6.640;2023-04-01T02:44:21;17.15;;;10.50;;
51949;SDS011;37974;53.218;6.640;2023-04-01T02:46:47;19.42;;;10.65;;
51949;SDS011;37974;53.218;6.640;2023-04-01T02:49:13;17.08;;;10.98;;
51949;SDS011;37974;53.218;6.640;2023-04-01T02:51:38;16.85;;;11.55;;
51949;SDS011;37974;53.218;6.640;2023-04-01T02:54:04;16.65;;;12.50;;
51949;SDS011;37974;53.218;6.640;2023-04-01T02:56:31;20.38;;;13.18;;
51949;SDS011;37974;53.218;6.640;2023-04-01T02:58:57;21.85;;;13.60;;
51949;SDS011;37974;53.218;6.640;2023-04-01T03:01:23;16.70;;;13.55;;
51949;SDS011;37974;53.218;6.640;2023-04-01T03:03:49;19.58;;;13.70;;
51949;SDS011;37974;53.218;6.640;2023-04-01T03:06:15;18.90;;;13.80;;
51949;SDS011;37974;53.218;6.640;2023-04-01T03:08:41;20.30;;;14.95;;
51949;SDS011;37974;53.218;6.640;2023-04-01T03:11:08;18.83;;;14.02;;
51949;SDS011;37974;53.218;6.640;2023-04-01T03:13:36;21.63;;;13.85;;
51949;SDS011;37974;53.218;6.640;2023-04-01T03:16:10;20.30;;;13.73;;
51949;SDS011;37974;53.218;6.640;2023-04-01T03:18:36;19.30;;;14.43;;
51949;SDS011;37974;53.218;6.640;2023-04-01T03:21:12;23.95;;;15.35;;
51949;SDS011;37974;53.218;6.640;2023-04-01T03:23:40;19.80;;;14.75;;
51949;SDS011;37974;53.218;6.640;2023-04-01T03:26:06;21.23;;;15.10;;
51949;SDS011;37974;53.218;6.640;2023-04-01T03:28:42;23.35;;;15.35;;
51949;SDS011;37974;53.218;6.640;2023-04-01T03:31:08;22.73;;;16.42;;
51949;SDS011;37974;53.218;6.640;2023-04-01T03:33:33;22.20;;;15.45;;
51949;SDS011;37974;53.218;6.640;2023-04-01T03:35:59;28.15;;;16.45;;
51949;SDS011;37974;53.218;6.640;2023-04-01T03:38:28;24.60;;;16.13;;
51949;SDS011;37974;53.218;6.640;2023-04-01T03:40:54;24.98;;;16.05;;
51949;SDS011;37974;53.218;6.640;2023-04-01T03:43:20;28.92;;;16.67;;
51949;SDS011;37974;53.218;6.640;2023-04-01T03:45:47;26.83;;;15.77;;
51949;SDS011;37974;53.218;6.640;2023-04-01T03:48:13;24.60;;;15.85;;
51949;SDS011;37974;53.218;6.640;2023-04-01T03:50:40;23.85;;;15.68;;
51949;SDS011;37974;53.218;6.640;2023-04-01T03:53:06;27.05;;;16.05;;
51949;SDS011;37974;53.218;6.640;2023-04-01T03:55:44;23.35;;;16.25;;
51949;SDS011;37974;53.218;6.640;2023-04-01T03:58:10;23.58;;;16.50;;
51949;SDS011;37974;53.218;6.640;2023-04-01T04:00:36;24.75;;;15.80;;
51949;SDS011;37974;53.218;6.640;2023-04-01T04:03:02;21.55;;;14.95;;
51949;SDS011;37974;53.218;6.640;2023-04-01T04:05:28;25.88;;;16.55;;
51949;SDS011;37974;53.218;6.640;2023-04-01T04:07:54;22.77;;;15.48;;
51949;SDS011;37974;53.218;6.640;2023-04-01T04:10:20;25.95;;;16.30;;
51949;SDS011;37974;53.218;6.640;2023-04-01T04:12:48;23.60;;;16.42;;
51949;SDS011;37974;53.218;6.640;2023-04-01T04:15:15;26.67;;;17.65;;
51949;SDS011;37974;53.218;6.640;2023-04-01T04:17:46;25.35;;;16.58;;
51949;SDS011;37974;53.218;6.640;2023-04-01T04:20:13;25.75;;;16.60;;
51949;SDS011;37974;53.218;6.640;2023-04-01T04:22:39;25.02;;;16.90;;
51949;SDS011;37974;53.218;6.640;2023-04-01T04:25:05;24.77;;;16.42;;
51949;SDS011;37974;53.218;6.640;2023-04-01T04:27:31;24.02;;;16.13;;
51949;SDS011;37974;53.218;6.640;2023-04-01T04:29:58;25.15;;;17.00;;
51949;SDS011;37974;53.218;6.640;2023-04-01T04:32:38;23.08;;;16.02;;
51949;SDS011;37974;53.218;6.640;2023-04-01T04:35:04;27.33;;;17.15;;
51949;SDS011;37974;53.218;6.640;2023-04-01T04:37:31;26.10;;;17.05;;
51949;SDS011;37974;53.218;6.640;2023-04-01T04:39:57;28.70;;;17.38;;
51949;SDS011;37974;53.218;6.640;2023-04-01T04:42:23;25.20;;;18.33;;
51949;SDS011;37974;53.218;6.640;2023-04-01T04:44:48;26.98;;;18.23;;
51949;SDS011;37974;53.218;6.640;2023-04-01T04:47:14;27.40;;;18.38;;
51949;SDS011;37974;53.218;6.640;2023-04-01T04:49:45;24.50;;;17.52;;
51949;SDS011;37974;53.218;6.640;2023-04-01T04:52:20;27.83;;;18.98;;
51949;SDS011;37974;53.218;6.640;2023-04-01T04:54:48;26.58;;;19.75;;
51949;SDS011;37974;53.218;6.640;2023-04-01T04:57:17;26.25;;;19.45;;
51949;SDS011;37974;53.218;6.640;2023-04-01T04:59:45;26.75;;;19.17;;
51949;SDS011;37974;53.218;6.640;2023-04-01T05:02:11;29.83;;;19.15;;
51949;SDS011;37974;53.218;6.640;2023-04-01T05:04:37;29.52;;;19.50;;
51949;SDS011;37974;53.218;6.640;2023-04-01T05:07:03;32.53;;;19.60;;
51949;SDS011;37974;53.218;6.640;2023-04-01T05:09:31;33.22;;;19.77;;
51949;SDS011;37974;53.218;6.640;2023-04-01T05:14:54;30.42;;;19.58;;
51949;SDS011;37974;53.218;6.640;2023-04-01T05:17:20;30.58;;;19.63;;
51949;SDS011;37974;53.218;6.640;2023-04-01T05:19:46;32.60;;;20.73;;
51949;SDS011;37974;53.218;6.640;2023-04-01T05:22:14;31.50;;;20.73;;
51949;SDS011;37974;53.218;6.640;2023-04-01T05:24:40;25.83;;;18.58;;
51949;SDS011;37974;53.218;6.640;2023-04-01T05:27:14;27.55;;;17.10;;
51949;SDS011;37974;53.218;6.640;2023-04-01T05:29:52;30.60;;;18.13;;
51949;SDS011;37974;53.218;6.640;2023-04-01T05:32:17;26.70;;;16.77;;
51949;SDS011;37974;53.218;6.640;2023-04-01T05:34:43;29.35;;;17.35;;
51949;SDS011;37974;53.218;6.640;2023-04-01T05:37:15;23.05;;;16.05;;
51949;SDS011;37974;53.218;6.640;2023-04-01T05:39:47;23.23;;;16.38;;
51949;SDS011;37974;53.218;6.640;2023-04-01T05:42:25;25.23;;;16.10;;
51949;SDS011;37974;53.218;6.640;2023-04-01T05:44:53;25.85;;;16.65;;
51949;SDS011;37974;53.218;6.640;2023-04-01T05:47:23;26.83;;;17.10;;
51949;SDS011;37974;53.218;6.640;2023-04-01T05:49:48;24.88;;;15.85;;
51949;SDS011;37974;53.218;6.640;2023-04-01T05:52:14;25.35;;;16.15;;
51949;SDS011;37974;53.218;6.640;2023-04-01T05:54:57;26.00;;;16.38;;
51949;SDS011;37974;53.218;6.640;2023-04-01T05:57:25;25.00;;;15.95;;
51949;SDS011;37974;53.218;6.640;2023-04-01T06:00:05;23.73;;;16.48;;
51949;SDS011;37974;53.218;6.640;2023-04-01T06:02:42;24.23;;;16.73;;
51949;SDS011;37974;53.218;6.640;2023-04-01T06:05:17;25.25;;;16.15;;
51949;SDS011;37974;53.218;6.640;2023-04-01T06:07:50;25.77;;;16.73;;
51949;SDS011;37974;53.218;6.640;2023-04-01T06:10:21;26.50;;;18.25;;
51949;SDS011;37974;53.218;6.640;2023-04-01T06:15:40;27.38;;;19.88;;
51949;SDS011;37974;53.218;6.640;2023-04-01T06:18:27;29.65;;;20.08;;
51949;SDS011;37974;53.218;6.640;2023-04-01T06:29:24;29.23;;;19.88;;
51949;SDS011;37974;53.218;6.640;2023-04-01T06:34:33;30.63;;;21.55;;
51949;SDS011;37974;53.218;6.640;2023-04-01T06:37:36;34.80;;;20.77;;
51949;SDS011;37974;53.218;6.640;2023-04-01T06:43:01;29.67;;;21.15;;
51949;SDS011;37974;53.218;6.640;2023-04-01T06:45:47;29.45;;;21.80;;
51949;SDS011;37974;53.218;6.640;2023-04-01T06:48:34;30.80;;;21.40;;
51949;SDS011;37974;53.218;6.640;2023-04-01T06:51:13;30.10;;;20.73;;
51949;SDS011;37974;53.218;6.640;2023-04-01T06:56:20;31.10;;;20.90;;
51949;SDS011;37974;53.218;6.640;2023-04-01T06:58:51;28.40;;;21.48;;
51949;SDS011;37974;53.218;6.640;2023-04-01T07:03:59;27.75;;;20.00;;
51949;SDS011;37974;53.218;6.640;2023-04-01T07:06:32;25.65;;;20.50;;
51949;SDS011;37974;53.218;6.640;2023-04-01T07:09:05;27.40;;;20.33;;
51949;SDS011;37974;53.218;6.640;2023-04-01T07:11:35;28.25;;;20.95;;
51949;SDS011;37974;53.218;6.640;2023-04-01T07:14:08;26.02;;;20.85;;
51949;SDS011;37974;53.218;6.640;2023-04-01T07:16:54;28.75;;;21.50;;
51949;SDS011;37974;53.218;6.640;2023-04-01T07:19:31;28.95;;;21.08;;
51949;SDS011;37974;53.218;6.640;2023-04-01T07:22:04;24.20;;;20.57;;
51949;SDS011;37974;53.218;6.640;2023-04-01T07:24:40;25.52;;;21.13;;
51949;SDS011;37974;53.218;6.640;2023-04-01T07:27:11;27.67;;;20.75;;
51949;SDS011;37974;53.218;6.640;2023-04-01T07:29:38;26.73;;;19.42;;
51949;SDS011;37974;53.218;6.640;2023-04-01T07:34:47;24.30;;;18.30;;
51949;SDS011;37974;53.218;6.640;2023-04-01T07:37:17;23.80;;;17.98;;
51949;SDS011;37974;53.218;6.640;2023-04-01T07:39:53;24.92;;;18.10;;
51949;SDS011;37974;53.218;6.640;2023-04-01T07:42:27;25.42;;;19.55;;
51949;SDS011;37974;53.218;6.640;2023-04-01T07:48:02;20.80;;;16.80;;
51949;SDS011;37974;53.218;6.640;2023-04-01T07:50:38;21.08;;;16.92;;
51949;SDS011;37974;53.218;6.640;2023-04-01T07:53:10;22.63;;;17.20;;
51949;SDS011;37974;53.218;6.640;2023-04-01T07:55:40;21.33;;;17.50;;
51949;SDS011;37974;53.218;6.640;2023-04-01T08:08:26;22.73;;;18.90;;
51949;SDS011;37974;53.218;6.640;2023-04-01T08:10:56;23.48;;;18.15;;
51949;SDS011;37974;53.218;6.640;2023-04-01T08:16:09;17.88;;;15.13;;
51949;SDS011;37974;53.218;6.640;2023-04-01T08:22:15;15.50;;;13.73;;
51949;SDS011;37974;53.218;6.640;2023-04-01T08:24:47;14.70;;;13.15;;
51949;SDS011;37974;53.218;6.640;2023-04-01T08:27:18;16.23;;;13.93;;
51949;SDS011;37974;53.218;6.640;2023-04-01T08:29:53;17.30;;;12.45;;
51949;SDS011;37974;53.218;6.640;2023-04-01T08:32:28;16.27;;;12.35;;
51949;SDS011;37974;53.218;6.640;2023-04-01T08:35:07;14.73;;;13.10;;
51949;SDS011;37974;53.218;6.640;2023-04-01T08:37:40;15.43;;;13.50;;
51949;SDS011;37974;53.218;6.640;2023-04-01T08:40:22;15.40;;;12.82;;
51949;SDS011;37974;53.218;6.640;2023-04-01T08:43:03;15.40;;;12.77;;
51949;SDS011;37974;53.218;6.640;2023-04-01T08:46:06;15.85;;;12.57;;
51949;SDS011;37974;53.218;6.640;2023-04-01T08:49:04;16.45;;;13.85;;
51949;SDS011;37974;53.218;6.640;2023-04-01T08:52:03;14.80;;;12.73;;
51949;SDS011;37974;53.218;6.640;2023-04-01T08:54:54;13.93;;;12.15;;
51949;SDS011;37974;53.218;6.640;2023-04-01T08:57:36;12.55;;;11.15;;
51949;SDS011;37974;53.218;6.640;2023-04-01T09:00:07;8.60;;;6.78;;
51949;SDS011;37974;53.218;6.640;2023-04-01T09:05:39;7.82;;;4.78;;
51949;SDS011;37974;53.218;6.640;2023-04-01T09:08:31;8.02;;;4.90;;
51949;SDS011;37974;53.218;6.640;2023-04-01T09:11:22;8.15;;;4.72;;
51949;SDS011;37974;53.218;6.640;2023-04-01T09:14:23;7.38;;;4.00;;
51949;SDS011;37974;53.218;6.640;2023-04-01T09:20:17;4.55;;;2.95;;
51949;SDS011;37974;53.218;6.640;2023-04-01T09:25:38;3.92;;;2.92;;
51949;SDS011;37974;53.218;6.640;2023-04-01T09:28:19;4.40;;;2.53;;
51949;SDS011;37974;53.218;6.640;2023-04-01T09:33:56;3.88;;;2.50;;
51949;SDS011;37974;53.218;6.640;2023-04-01T09:47:01;4.53;;;2.70;;
51949;SDS011;37974;53.218;6.640;2023-04-01T09:50:00;3.70;;;2.42;;
51949;SDS011;37974;53.218;6.640;2023-04-01T09:53:10;4.15;;;2.50;;
51949;SDS011;37974;53.218;6.640;2023-04-01T10:05:58;3.40;;;2.22;;
51949;SDS011;37974;53.218;6.640;2023-04-01T10:17:08;5.78;;;1.90;;
51949;SDS011;37974;53.218;6.640;2023-04-01T11:05:52;4.28;;;2.30;;
51949;SDS011;37974;53.218;6.640;2023-04-01T11:08:31;4.07;;;2.10;;
51949;SDS011;37974;53.218;6.640;2023-04-01T11:14:37;3.60;;;2.00;;
51949;SDS011;37974;53.218;6.640;2023-04-01T11:21:02;3.83;;;1.92;;
51949;SDS011;37974;53.218;6.640;2023-04-01T11:26:27;2.38;;;1.55;;
51949;SDS011;37974;53.218;6.640;2023-04-01T11:31:40;4.78;;;1.85;;
51949;SDS011;37974;53.218;6.640;2023-04-01T11:34:29;5.05;;;2.00;;
51949;SDS011;37974;53.218;6.640;2023-04-01T11:40:11;4.70;;;1.55;;
51949;SDS011;37974;53.218;6.640;2023-04-01T11:42:58;2.40;;;1.40;;
51949;SDS011;37974;53.218;6.640;2023-04-01T11:51:04;3.80;;;1.30;;
51949;SDS011;37974;53.218;6.640;2023-04-01T11:58:57;2.33;;;1.10;;
51949;SDS011;37974;53.218;6.640;2023-04-01T12:01:46;3.50;;;1.10;;
51949;SDS011;37974;53.218;6.640;2023-04-01T12:10:19;4.07;;;1.27;;
51949;SDS011;37974;53.218;6.640;2023-04-01T12:15:36;1.48;;;1.05;;
51949;SDS011;37974;53.218;6.640;2023-04-01T12:37:08;3.67;;;1.40;;
51949;SDS011;37974;53.218;6.640;2023-04-01T12:42:35;4.50;;;1.58;;
51949;SDS011;37974;53.218;6.640;2023-04-01T12:48:00;5.60;;;1.60;;
51949;SDS011;37974;53.218;6.640;2023-04-01T12:50:43;2.88;;;1.55;;
51949;SDS011;37974;53.218;6.640;2023-04-01T12:53:57;2.03;;;1.20;;
51949;SDS011;37974;53.218;6.640;2023-04-01T12:59:20;1.90;;;1.20;;
51949;SDS011;37974;53.218;6.640;2023-04-01T13:10:55;3.33;;;1.55;;
51949;SDS011;37974;53.218;6.640;2023-04-01T13:13:30;3.90;;;1.38;;
51949;SDS011;37974;53.218;6.640;2023-04-01T13:24:13;3.15;;;1.20;;
51949;SDS011;37974;53.218;6.640;2023-04-01T13:29:25;3.55;;;1.10;;
51949;SDS011;37974;53.218;6.640;2023-04-01T13:37:20;2.20;;;1.17;;
51949;SDS011;37974;53.218;6.640;2023-04-01T13:42:45;3.08;;;1.30;;
51949;SDS011;37974;53.218;6.640;2023-04-01T13:45:21;5.95;;;1.55;;
51949;SDS011;37974;53.218;6.640;2023-04-01T13:47:55;1.80;;;0.90;;
51949;SDS011;37974;53.218;6.640;2023-04-01T13:58:56;2.55;;;1.10;;
51949;SDS011;37974;53.218;6.640;2023-04-01T14:04:04;1.80;;;1.00;;
51949;SDS011;37974;53.218;6.640;2023-04-01T14:09:27;1.50;;;0.82;;
51949;SDS011;37974;53.218;6.640;2023-04-01T14:17:12;2.35;;;1.00;;
51949;SDS011;37974;53.218;6.640;2023-04-01T14:19:56;4.55;;;1.10;;
51949;SDS011;37974;53.218;6.640;2023-04-01T14:28:03;1.63;;;0.70;;
51949;SDS011;37974;53.218;6.640;2023-04-01T14:33:26;1.77;;;0.90;;
51949;SDS011;37974;53.218;6.640;2023-04-01T14:36:23;2.88;;;1.00;;
51949;SDS011;37974;53.218;6.640;2023-04-01T14:44:16;2.28;;;1.08;;
51949;SDS011;37974;53.218;6.640;2023-04-01T14:47:15;2.05;;;0.82;;
51949;SDS011;37974;53.218;6.640;2023-04-01T14:49:50;4.00;;;1.10;;
51949;SDS011;37974;53.218;6.640;2023-04-01T14:54:55;2.60;;;0.98;;
51949;SDS011;37974;53.218;6.640;2023-04-01T14:59:51;2.47;;;1.33;;
51949;SDS011;37974;53.218;6.640;2023-04-01T15:02:29;3.40;;;1.50;;
51949;SDS011;37974;53.218;6.640;2023-04-01T15:10:18;3.63;;;1.80;;
51949;SDS011;37974;53.218;6.640;2023-04-01T15:13:12;4.03;;;1.60;;
51949;SDS011;37974;53.218;6.640;2023-04-01T15:16:10;4.40;;;1.83;;
51949;SDS011;37974;53.218;6.640;2023-04-01T15:21:18;6.03;;;2.10;;
51949;SDS011;37974;53.218;6.640;2023-04-01T15:24:00;6.32;;;2.30;;
51949;SDS011;37974;53.218;6.640;2023-04-01T15:27:02;5.30;;;1.92;;
51949;SDS011;37974;53.218;6.640;2023-04-01T15:29:50;6.30;;;2.75;;
51949;SDS011;37974;53.218;6.640;2023-04-01T15:32:39;5.75;;;2.22;;
51949;SDS011;37974;53.218;6.640;2023-04-01T15:38:05;5.60;;;2.58;;
51949;SDS011;37974;53.218;6.640;2023-04-01T15:43:21;6.40;;;2.90;;
51949;SDS011;37974;53.218;6.640;2023-04-01T15:48:51;5.30;;;2.50;;
51949;SDS011;37974;53.218;6.640;2023-04-01T16:07:42;8.35;;;4.40;;
51949;SDS011;37974;53.218;6.640;2023-04-01T16:13:04;12.38;;;4.03;;
51949;SDS011;37974;53.218;6.640;2023-04-01T16:15:51;13.70;;;4.78;;
51949;SDS011;37974;53.218;6.640;2023-04-01T16:18:23;10.00;;;4.35;;
51949;SDS011;37974;53.218;6.640;2023-04-01T16:20:55;11.18;;;4.18;;
51949;SDS011;37974;53.218;6.640;2023-04-01T16:23:30;10.25;;;4.32;;
51949;SDS011;37974;53.218;6.640;2023-04-01T16:26:18;12.40;;;4.57;;
51949;SDS011;37974;53.218;6.640;2023-04-01T16:31:38;10.57;;;4.38;;
51949;SDS011;37974;53.218;6.640;2023-04-01T16:34:29;10.57;;;4.80;;
51949;SDS011;37974;53.218;6.640;2023-04-01T16:37:07;8.43;;;4.30;;
51949;SDS011;37974;53.218;6.640;2023-04-01T16:42:17;10.07;;;4.78;;
51949;SDS011;37974;53.218;6.640;2023-04-01T16:47:22;7.05;;;4.30;;
51949;SDS011;37974;53.218;6.640;2023-04-01T16:49:59;12.00;;;4.15;;
51949;SDS011;37974;53.218;6.640;2023-04-01T16:52:33;9.55;;;4.05;;
51949;SDS011;37974;53.218;6.640;2023-04-01T16:55:18;8.85;;;4.15;;
51949;SDS011;37974;53.218;6.640;2023-04-01T16:57:48;8.15;;;4.22;;
51949;SDS011;37974;53.218;6.640;2023-04-01T17:02:51;15.50;;;5.15;;
51949;SDS011;37974;53.218;6.640;2023-04-01T17:05:22;11.77;;;5.57;;
51949;SDS011;37974;53.218;6.640;2023-04-01T17:10:50;8.07;;;4.07;;
51949;SDS011;37974;53.218;6.640;2023-04-01T17:13:29;9.57;;;4.00;;
51949;SDS011;37974;53.218;6.640;2023-04-01T17:21:00;9.80;;;3.90;;
51949;SDS011;37974;53.218;6.640;2023-04-01T17:26:16;10.15;;;4.90;;
51949;SDS011;37974;53.218;6.640;2023-04-01T17:29:01;9.23;;;4.63;;
51949;SDS011;37974;53.218;6.640;2023-04-01T17:31:34;8.32;;;4.13;;
51949;SDS011;37974;53.218;6.640;2023-04-01T17:36:51;9.60;;;4.40;;
51949;SDS011;37974;53.218;6.640;2023-04-01T17:39:57;8.95;;;4.18;;
51949;SDS011;37974;53.218;6.640;2023-04-01T17:42:34;9.52;;;4.05;;
51949;SDS011;37974;53.218;6.640;2023-04-01T17:45:30;9.38;;;4.03;;
51949;SDS011;37974;53.218;6.640;2023-04-01T17:53:17;9.57;;;5.13;;
51949;SDS011;37974;53.218;6.640;2023-04-01T18:04:07;11.15;;;4.88;;
51949;SDS011;37974;53.218;6.640;2023-04-01T18:09:17;10.52;;;4.78;;
51949;SDS011;37974;53.218;6.640;2023-04-01T18:12:04;10.38;;;4.82;;
51949;SDS011;37974;53.218;6.640;2023-04-01T18:17:23;10.05;;;4.57;;
51949;SDS011;37974;53.218;6.640;2023-04-01T18:22:59;13.38;;;5.43;;
51949;SDS011;37974;53.218;6.640;2023-04-01T18:25:41;14.15;;;5.47;;
51949;SDS011;37974;53.218;6.640;2023-04-01T18:28:16;12.40;;;5.35;;
51949;SDS011;37974;53.218;6.640;2023-04-01T18:30:51;16.75;;;5.47;;
51949;SDS011;37974;53.218;6.640;2023-04-01T18:36:15;13.38;;;5.40;;
51949;SDS011;37974;53.218;6.640;2023-04-01T18:39:02;14.27;;;6.68;;
51949;SDS011;37974;53.218;6.640;2023-04-01T18:41:36;15.05;;;5.10;;
51949;SDS011;37974;53.218;6.640;2023-04-01T18:44:36;10.13;;;5.03;;
51949;SDS011;37974;53.218;6.640;2023-04-01T18:47:16;16.30;;;5.60;;
51949;SDS011;37974;53.218;6.640;2023-04-01T18:52:33;12.45;;;5.68;;
51949;SDS011;37974;53.218;6.640;2023-04-01T18:57:47;15.23;;;6.32;;
51949;SDS011;37974;53.218;6.640;2023-04-01T19:00:24;12.65;;;5.78;;
51949;SDS011;37974;53.218;6.640;2023-04-01T19:02:55;16.17;;;5.90;;
51949;SDS011;37974;53.218;6.640;2023-04-01T19:05:29;15.85;;;6.28;;
51949;SDS011;37974;53.218;6.640;2023-04-01T19:08:16;12.57;;;6.05;;
51949;SDS011;37974;53.218;6.640;2023-04-01T19:10:49;17.65;;;6.25;;
51949;SDS011;37974;53.218;6.640;2023-04-01T19:13:30;12.18;;;5.40;;
51949;SDS011;37974;53.218;6.640;2023-04-01T19:16:04;14.07;;;6.00;;
51949;SDS011;37974;53.218;6.640;2023-04-01T19:23:51;12.63;;;5.70;;
51949;SDS011;37974;53.218;6.640;2023-04-01T19:26:21;11.18;;;5.35;;
51949;SDS011;37974;53.218;6.640;2023-04-01T19:28:55;12.23;;;5.70;;
51949;SDS011;37974;53.218;6.640;2023-04-01T19:31:31;16.38;;;6.40;;
51949;SDS011;37974;53.218;6.640;2023-04-01T19:34:03;13.93;;;6.18;;
51949;SDS011;37974;53.218;6.640;2023-04-01T19:36:45;12.68;;;5.55;;
51949;SDS011;37974;53.218;6.640;2023-04-01T19:41:59;13.95;;;5.18;;
51949;SDS011;37974;53.218;6.640;2023-04-01T19:47:19;12.13;;;4.78;;
51949;SDS011;37974;53.218;6.640;2023-04-01T19:53:04;13.20;;;5.90;;
51949;SDS011;37974;53.218;6.640;2023-04-01T19:55:42;14.55;;;5.75;;
51949;SDS011;37974;53.218;6.640;2023-04-01T20:00:55;11.30;;;5.75;;
51949;SDS011;37974;53.218;6.640;2023-04-01T20:03:32;10.82;;;5.47;;
51949;SDS011;37974;53.218;6.640;2023-04-01T20:06:09;10.93;;;4.95;;
51949;SDS011;37974;53.218;6.640;2023-04-01T20:11:58;8.88;;;4.45;;
51949;SDS011;37974;53.218;6.640;2023-04-01T20:14:26;11.68;;;4.60;;
51949;SDS011;37974;53.218;6.640;2023-04-01T20:19:38;11.85;;;4.50;;
51949;SDS011;37974;53.218;6.640;2023-04-01T20:22:16;14.75;;;5.15;;
51949;SDS011;37974;53.218;6.640;2023-04-01T20:24:56;10.07;;;4.93;;
51949;SDS011;37974;53.218;6.640;2023-04-01T20:27:27;9.57;;;4.50;;
51949;SDS011;37974;53.218;6.640;2023-04-01T20:30:04;10.95;;;4.30;;
51949;SDS011;37974;53.218;6.640;2023-04-01T20:35:30;8.73;;;3.95;;
51949;SDS011;37974;53.218;6.640;2023-04-01T20:38:17;10.93;;;3.65;;
51949;SDS011;37974;53.218;6.640;2023-04-01T20:41:03;9.00;;;3.63;;
51949;SDS011;37974;53.218;6.640;2023-04-01T20:43:40;15.52;;;5.00;;
51949;SDS011;37974;53.218;6.640;2023-04-01T20:46:23;11.57;;;4.57;;
51949;SDS011;37974;53.218;6.640;2023-04-01T20:51:38;10.18;;;3.97;;
51949;SDS011;37974;53.218;6.640;2023-04-01T21:01:54;12.02;;;4.22;;
51949;SDS011;37974;53.218;6.640;2023-04-01T21:05:00;12.13;;;4.40;;
51949;SDS011;37974;53.218;6.640;2023-04-01T21:15:16;9.90;;;4.03;;
51949;SDS011;37974;53.218;6.640;2023-04-01T21:17:56;16.00;;;4.93;;
51949;SDS011;37974;53.218;6.640;2023-04-01T21:20:34;13.02;;;4.53;;
51949;SDS011;37974;53.218;6.640;2023-04-01T21:23:10;13.80;;;4.40;;
51949;SDS011;37974;53.218;6.640;2023-04-01T21:25:45;14.65;;;4.40;;
51949;SDS011;37974;53.218;6.640;2023-04-01T21:31:03;8.85;;;3.85;;
51949;SDS011;37974;53.218;6.640;2023-04-01T21:39:15;10.88;;;4.53;;
51949;SDS011;37974;53.218;6.640;2023-04-01T21:55:59;10.35;;;3.88;;
51949;SDS011;37974;53.218;6.640;2023-04-01T22:11:35;7.28;;;3.20;;
51949;SDS011;37974;53.218;6.640;2023-04-01T22:14:11;8.30;;;3.38;;
51949;SDS011;37974;53.218;6.640;2023-04-01T22:16:48;7.38;;;3.38;;
51949;SDS011;37974;53.218;6.640;2023-04-01T22:19:27;9.50;;;3.00;;
51949;SDS011;37974;53.218;6.640;2023-04-01T22:22:09;10.50;;;3.70;;
51949;SDS011;37974;53.218;6.640;2023-04-01T22:24:41;7.65;;;3.08;;
51949;SDS011;37974;53.218;6.640;2023-04-01T22:27:21;8.68;;;3.53;;
51949;SDS011;37974;53.218;6.640;2023-04-01T22:29:58;11.40;;;4.05;;
51949;SDS011;37974;53.218;6.640;2023-04-01T22:32:32;10.60;;;4.32;;
51949;SDS011;37974;53.218;6.640;2023-04-01T22:40:17;15.98;;;4.15;;
51949;SDS011;37974;53.218;6.640;2023-04-01T22:42:53;13.93;;;3.40;;
51949;SDS011;37974;53.218;6.640;2023-04-01T22:48:01;7.60;;;3.25;;
51949;SDS011;37974;53.218;6.640;2023-04-01T22:50:44;12.85;;;3.50;;
51949;SDS011;37974;53.218;6.640;2023-04-01T22:55:51;9.00;;;2.80;;